Time;durP1;ratioP1;P1;durP2;ratioP2;P2;SDS_P1;SDS_P2;PMS_P1;PMS_P2;Temp;Humidity;BMP_temperature;BMP_pressure;BME280_temperature;BME280_humidity;BME280_pressure;Samples;Min_cycle;Max_cycle;Signal;HPM_P1;HPM_P2
2022/04/10 00:01:29;;;;;;;1999.90;999.90;;;;;;;12.34;55.60;93698.16;5053765;28;20167;-84
2022/04/10 00:03:56;;;;;;;1999.90;999.90;;;;;;;12.27;56.14;93682.53;5050600;28;20200;-84
2022/04/10 00:06:22;;;;;;;1999.90;999.90;;;;;;;12.52;56.71;93715.50;5053151;28;20167;-84
2022/04/10 00:08:48;;;;;;;1999.90;999.90;;;;;;;12.11;56.15;93670.22;5053156;28;20171;-84
2022/04/10 00:11:13;;;;;;;1999.90;999.90;;;;;;;11.95;56.05;93698.28;5052988;28;20723;-85
2022/04/10 00:13:39;;;;;;;1999.90;999.90;;;;;;;11.66;56.86;93654.72;5053680;28;20180;-85
2022/04/10 00:16:04;;;;;;;1999.90;999.90;;;;;;;11.78;56.53;93665.16;5053707;28;20193;-84
2022/04/10 00:18:31;;;;;;;1999.90;999.90;;;;;;;12.27;57.14;93727.41;5035510;28;20649;-85
2022/04/10 00:20:56;;;;;;;1999.90;999.90;;;;;;;12.27;56.65;93729.25;5053467;28;20152;-85
2022/04/10 00:23:21;;;;;;;1999.90;999.90;;;;;;;12.28;56.49;93721.06;5052927;28;20557;-84
2022/04/10 00:25:47;;;;;;;1999.90;999.90;;;;;;;11.86;55.70;93652.31;5035047;28;20179;-85
2022/04/10 00:28:12;;;;;;;1999.90;999.90;;;;;;;11.91;55.63;93668.22;5052892;28;20159;-85
2022/04/10 00:30:38;;;;;;;1999.90;999.90;;;;;;;12.19;55.61;93705.94;5052959;28;20709;-85
2022/04/10 00:33:03;;;;;;;1999.90;999.90;;;;;;;12.01;55.70;93678.06;5035548;28;20175;-85
2022/04/10 00:35:30;;;;;;;1999.90;999.90;;;;;;;12.00;55.36;93679.91;5053467;28;20211;-85
2022/04/10 00:37:55;;;;;;;1999.90;999.90;;;;;;;11.80;55.45;93690.22;5035820;28;20653;-85
2022/04/10 00:40:21;;;;;;;1999.90;999.90;;;;;;;12.11;55.67;93735.41;5053888;28;20213;-85
2022/04/10 00:42:51;;;;;;;1999.90;999.90;;;;;;;11.97;56.30;93722.59;5054414;28;20159;-85
2022/04/10 00:45:17;;;;;;;1999.90;999.90;;;;;;;12.11;56.80;93738.03;5035530;28;20170;-85
2022/04/10 00:47:45;;;;;;;207.70;190.23;;;;;;;11.46;56.31;93673.72;5052853;28;20538;-85
2022/04/10 00:50:13;;;;;;;186.43;170.63;;;;;;;11.87;56.15;93737.50;5054164;28;20152;-84
2022/04/10 00:52:41;;;;;;;83.20;76.70;;;;;;;11.47;56.64;93656.88;5053787;28;20170;-84
2022/04/10 00:55:07;;;;;;;11.73;10.63;;;;;;;11.82;56.95;93692.63;5052546;28;20194;-85
2022/04/10 00:57:33;;;;;;;8.93;3.90;;;;;;;11.58;56.58;93684.16;5052570;28;20206;-84
2022/04/10 00:59:58;;;;;;;7.47;3.87;;;;;;;11.13;57.86;93615.88;5052861;28;20186;-84
2022/04/10 01:02:23;;;;;;;9.27;3.70;;;;;;;11.29;57.85;93630.84;5034628;28;20779;-84
2022/04/10 01:04:49;;;;;;;8.27;3.57;;;;;;;11.44;57.60;93631.00;5051688;28;20171;-84
2022/04/10 01:07:16;;;;;;;8.70;3.80;;;;;;;11.64;57.31;93667.34;5051760;28;20233;-84
2022/04/10 01:09:42;;;;;;;10.57;4.30;;;;;;;11.64;57.20;93675.25;5051792;28;20193;-84
2022/04/10 01:12:08;;;;;;;10.77;4.10;;;;;;;11.32;57.88;93638.25;5033942;28;20564;-84
2022/04/10 01:14:35;;;;;;;8.57;4.03;;;;;;;11.34;58.32;93631.69;5051352;28;20613;-84
2022/04/10 01:17:01;;;;;;;10.23;4.80;;;;;;;11.13;58.37;93602.72;5051576;28;20221;-84
2022/04/10 01:19:27;;;;;;;7.90;4.53;;;;;;;11.11;58.75;93605.59;5033770;28;20225;-84
2022/04/10 01:21:55;;;;;;;15.57;4.43;;;;;;;11.50;58.98;93672.19;5050183;28;20167;-85
2022/04/10 01:24:21;;;;;;;10.37;4.47;;;;;;;11.08;58.46;93608.69;5034505;28;20199;-85
2022/04/10 01:26:47;;;;;;;15.40;5.40;;;;;;;11.61;58.72;93687.06;5034297;28;20652;-85
2022/04/10 01:29:14;;;;;;;10.03;4.93;;;;;;;11.28;58.98;93622.13;5034195;28;20179;-85
2022/04/10 01:31:42;;;;;;;12.03;5.10;;;;;;;11.33;58.46;93634.56;5052426;28;20170;-85
2022/04/10 01:34:15;;;;;;;15.90;5.37;;;;;;;11.19;58.37;93618.34;5052128;28;20246;-85
2022/04/10 01:36:43;;;;;;;13.60;6.40;;;;;;;11.55;58.48;93677.53;5052426;28;20186;-86
2022/04/10 01:39:10;;;;;;;20.50;5.80;;;;;;;11.50;58.09;93677.44;5034243;28;20177;-86
2022/04/10 01:41:36;;;;;;;14.60;5.97;;;;;;;11.48;58.14;93689.28;5034593;28;20175;-86
2022/04/10 01:44:05;;;;;;;16.77;5.70;;;;;;;10.78;58.42;93624.09;5034446;28;20217;-85
2022/04/10 01:46:32;;;;;;;12.07;5.03;;;;;;;11.22;59.09;93706.59;5052105;28;20185;-86
2022/04/10 01:48:58;;;;;;;11.80;5.90;;;;;;;10.67;59.76;93604.75;5051411;28;20167;-86
2022/04/10 01:51:24;;;;;;;11.90;4.53;;;;;;;11.21;59.27;93686.56;5051484;28;20618;-85
2022/04/10 01:53:51;;;;;;;10.83;4.57;;;;;;;10.93;58.73;93634.84;5051524;28;21100;-84
2022/04/10 01:56:17;;;;;;;13.77;4.80;;;;;;;10.94;58.85;93637.22;5051528;28;20195;-84
2022/04/10 01:58:44;;;;;;;10.67;4.30;;;;;;;11.28;58.36;93688.00;5055177;28;20209;-84
2022/04/10 02:01:11;;;;;;;8.93;4.00;;;;;;;11.31;58.64;93679.59;5056141;28;20611;-83
2022/04/10 02:03:37;;;;;;;10.17;3.80;;;;;;;11.26;58.09;93682.16;5055817;28;20171;-83
2022/04/10 02:06:07;;;;;;;7.50;4.00;;;;;;;11.16;58.23;93641.72;5055858;28;20166;-84
2022/04/10 02:08:35;;;;;;;12.47;3.60;;;;;;;10.88;58.50;93590.03;5037798;28;20246;-84
2022/04/10 02:11:01;;;;;;;14.47;4.60;;;;;;;10.87;59.57;93609.50;5055502;28;20286;-84
2022/04/10 02:13:27;;;;;;;27.03;3.83;;;;;;;11.06;59.90;93662.66;5055663;28;20170;-85
2022/04/10 02:15:52;;;;;;;10.23;4.60;;;;;;;10.36;61.15;93558.00;5037684;28;20205;-87
2022/04/10 02:18:18;;;;;;;16.87;4.80;;;;;;;10.50;61.43;93575.81;5037732;28;20262;-87
2022/04/10 02:20:43;;;;;;;10.43;4.27;;;;;;;10.87;60.91;93644.50;5053665;28;20174;-84
2022/04/10 02:23:09;;;;;;;9.20;3.60;;;;;;;10.53;61.12;93608.75;5053817;28;20237;-83
2022/04/10 02:25:34;;;;;;;10.00;3.67;;;;;;;10.84;61.14;93655.50;5037278;28;20229;-83
2022/04/10 02:28:00;;;;;;;9.23;3.97;;;;;;;10.96;60.43;93679.13;5053048;28;20163;-83
2022/04/10 02:30:26;;;;;;;10.87;3.53;;;;;;;10.94;60.73;93679.34;5055427;28;20551;-83
2022/04/10 02:32:52;;;;;;;7.20;3.23;;;;;;;11.06;61.85;93678.47;5054799;28;20242;-83
2022/04/10 02:35:18;;;;;;;7.50;3.40;;;;;;;11.14;61.66;93678.84;5054904;28;20230;-83
2022/04/10 02:37:45;;;;;;;10.70;3.03;;;;;;;11.12;61.30;93673.03;5054838;28;20177;-83
2022/04/10 02:40:14;;;;;;;6.20;3.07;;;;;;;10.81;61.15;93621.00;5055273;28;20199;-83
2022/04/10 02:42:40;;;;;;;7.83;3.07;;;;;;;11.24;60.99;93672.94;5037487;28;20167;-82
2022/04/10 02:45:06;;;;;;;9.73;3.23;;;;;;;11.17;61.19;93640.69;5055166;28;20152;-82
2022/04/10 02:47:31;;;;;;;9.53;3.60;;;;;;;10.91;60.71;93602.69;5037163;28;20182;-83
2022/04/10 02:49:57;;;;;;;8.83;3.20;;;;;;;11.36;60.75;93686.75;5055501;28;20155;-83
2022/04/10 02:52:22;;;;;;;11.60;4.70;;;;;;;11.48;60.75;93687.47;5055182;28;20593;-84
2022/04/10 02:54:48;;;;;;;9.00;3.20;;;;;;;11.16;59.97;93623.28;5036971;28;20206;-84
2022/04/10 02:57:13;;;;;;;7.87;2.93;;;;;;;11.17;62.12;93636.22;5055290;28;20204;-84
2022/04/10 02:59:39;;;;;;;6.23;3.33;;;;;;;11.22;61.84;93630.22;5055012;28;20247;-84
2022/04/10 03:02:04;;;;;;;10.73;3.23;;;;;;;11.45;61.50;93655.53;5036834;28;20171;-84
2022/04/10 03:04:30;;;;;;;13.37;3.33;;;;;;;11.42;61.81;93642.81;5055168;28;20170;-84
2022/04/10 03:06:55;;;;;;;13.53;6.20;;;;;;;11.48;62.71;93658.47;5036828;28;20167;-84
2022/04/10 03:09:21;;;;;;;13.90;6.37;;;;;;;11.80;62.42;93697.34;5036263;28;20175;-84
2022/04/10 03:11:46;;;;;;;19.40;7.03;;;;;;;11.63;62.28;93660.47;5054503;28;20673;-84
2022/04/10 03:14:12;;;;;;;12.40;4.83;;;;;;;11.59;62.56;93643.56;5036648;28;20568;-85
2022/04/10 03:16:37;;;;;;;18.07;5.20;;;;;;;11.26;63.06;93586.53;5054136;28;20206;-85
2022/04/10 03:19:03;;;;;;;5.40;3.50;;;;;;;11.68;61.84;93636.81;5053866;28;20163;-84
2022/04/10 03:21:29;;;;;;;7.80;3.70;;;;;;;11.79;63.15;93701.00;5053965;28;20176;-84
2022/04/10 03:23:55;;;;;;;9.53;4.17;;;;;;;11.26;66.42;93662.91;5054121;28;20174;-84
2022/04/10 03:26:20;;;;;;;24.40;7.10;;;;;;;11.52;67.18;93722.81;5054357;28;20183;-84
2022/04/10 03:28:45;;;;;;;29.37;13.60;;;;;;;11.29;67.14;93696.69;5054654;28;20171;-84
2022/04/10 03:31:11;;;;;;;25.97;14.50;;;;;;;10.98;67.44;93660.47;5036563;28;20211;-84
2022/04/10 03:33:36;;;;;;;11.00;5.47;;;;;;;11.20;68.40;93650.72;5054245;28;20167;-85
2022/04/10 03:36:02;;;;;;;14.17;7.43;;;;;;;11.28;69.43;93653.75;5054122;28;20183;-84
2022/04/10 03:38:27;;;;;;;25.27;11.07;;;;;;;11.10;69.92;93617.16;5054174;28;20588;-85
2022/04/10 03:40:53;;;;;;;12.17;4.50;;;;;;;11.35;68.46;93643.00;5054451;28;20155;-85
2022/04/10 03:43:19;;;;;;;25.77;14.53;;;;;;;11.44;67.80;93644.19;5054068;28;20642;-84
2022/04/10 03:45:44;;;;;;;12.83;6.57;;;;;;;11.82;67.97;93703.97;5054422;28;20151;-84
2022/04/10 03:48:10;;;;;;;26.23;12.40;;;;;;;11.94;68.32;93707.25;5054272;28;20147;-84
2022/04/10 03:50:35;;;;;;;13.33;7.03;;;;;;;11.84;67.83;93683.44;5036302;28;20221;-85
2022/04/10 03:53:02;;;;;;;8.20;4.20;;;;;;;11.64;66.50;93662.88;5053928;28;20186;-84
2022/04/10 03:55:27;;;;;;;16.53;5.10;;;;;;;11.73;67.49;93708.84;5053864;28;20685;-84
2022/04/10 03:57:53;;;;;;;8.17;4.60;;;;;;;11.36;67.75;93678.84;5053984;28;20187;-85
2022/04/10 04:00:20;;;;;;;9.03;3.90;;;;;;;11.50;67.43;93701.16;5052736;28;20572;-84
2022/04/10 04:02:46;;;;;;;9.67;5.60;;;;;;;11.71;68.60;93729.38;5052873;28;20178;-84
2022/04/10 04:05:12;;;;;;;7.43;4.73;;;;;;;11.81;67.89;93736.66;5052849;28;20175;-84
2022/04/10 04:07:38;;;;;;;6.80;4.33;;;;;;;11.60;69.21;93697.84;5053435;28;20246;-85
2022/04/10 04:10:05;;;;;;;10.53;5.43;;;;;;;11.91;69.48;93752.59;5053496;28;20171;-85
2022/04/10 04:12:30;;;;;;;6.80;4.13;;;;;;;11.37;68.53;93708.63;5053357;28;20229;-85
2022/04/10 04:14:56;;;;;;;9.13;4.83;;;;;;;11.04;69.59;93664.75;5053950;28;20180;-85
2022/04/10 04:17:21;;;;;;;6.47;4.87;;;;;;;11.24;70.61;93699.25;5035495;28;20187;-84
2022/04/10 04:19:49;;;;;;;10.27;6.83;;;;;;;11.45;70.99;93735.38;5053604;28;20670;-84
2022/04/10 04:22:16;;;;;;;9.27;7.00;;;;;;;11.08;72.12;93705.34;5052199;28;20238;-83
2022/04/10 04:24:41;;;;;;;10.07;7.73;;;;;;;10.85;72.75;93704.50;5053684;28;20179;-83
2022/04/10 04:27:07;;;;;;;12.70;8.50;;;;;;;10.79;72.79;93699.41;5053203;28;20167;-83
2022/04/10 04:29:32;;;;;;;13.60;9.30;;;;;;;11.02;72.61;93735.28;5053171;28;20171;-83
2022/04/10 04:31:58;;;;;;;11.13;8.70;;;;;;;10.99;72.16;93733.91;5053167;28;20237;-84
2022/04/10 04:34:23;;;;;;;13.30;9.53;;;;;;;10.61;72.68;93726.75;5053449;28;20163;-83
2022/04/10 04:36:49;;;;;;;14.07;9.40;;;;;;;10.56;73.37;93739.81;5053057;28;20179;-83
2022/04/10 04:39:14;;;;;;;14.30;9.93;;;;;;;10.95;72.64;93799.44;5053235;28;20182;-83
2022/04/10 04:41:40;;;;;;;14.07;9.00;;;;;;;10.54;73.19;93737.44;5052910;28;20175;-83
2022/04/10 04:44:06;;;;;;;13.73;9.70;;;;;;;10.33;73.16;93726.81;5052157;28;20174;-84
2022/04/10 04:46:31;;;;;;;15.50;9.43;;;;;;;10.61;73.47;93813.59;5052071;28;20634;-84
2022/04/10 04:48:56;;;;;;;12.73;9.43;;;;;;;10.13;74.69;93770.06;5051872;28;20174;-84
2022/04/10 04:51:22;;;;;;;15.67;10.30;;;;;;;9.91;74.96;93749.94;5052531;28;20647;-84
2022/04/10 04:53:47;;;;;;;17.50;10.70;;;;;;;10.23;75.80;93816.03;5052739;28;20555;-84
2022/04/10 04:56:13;;;;;;;17.10;10.97;;;;;;;10.38;75.98;93825.00;5034701;28;20233;-83
2022/04/10 04:58:38;;;;;;;15.67;10.60;;;;;;;9.67;75.15;93722.94;5052563;28;20173;-83
2022/04/10 05:01:03;;;;;;;16.83;10.33;;;;;;;9.81;75.18;93766.28;5052693;28;20174;-83
2022/04/10 05:03:29;;;;;;;17.97;10.97;;;;;;;10.26;75.51;93850.56;5053183;28;20159;-83
2022/04/10 05:05:54;;;;;;;17.17;11.43;;;;;;;9.76;76.31;93795.91;5052901;28;20228;-83
2022/04/10 05:08:20;;;;;;;18.47;11.00;;;;;;;9.35;76.03;93746.97;5051521;28;20971;-83
2022/04/10 05:10:46;;;;;;;20.27;11.63;;;;;;;9.46;76.46;93788.19;5034239;28;20202;-83
2022/04/10 05:13:12;;;;;;;23.93;11.13;;;;;;;9.68;77.61;93832.25;5034697;28;20174;-83
2022/04/10 05:15:37;;;;;;;18.43;10.83;;;;;;;9.63;77.25;93813.75;5052607;28;20179;-83
2022/04/10 05:18:03;;;;;;;19.60;11.50;;;;;;;9.41;77.24;93789.91;5052750;28;20181;-82
2022/04/10 05:20:29;;;;;;;17.17;10.47;;;;;;;9.66;76.72;93847.44;5052662;28;20163;-82
2022/04/10 05:22:54;;;;;;;15.37;9.70;;;;;;;9.30;78.13;93809.88;5034512;28;20167;-83
2022/04/10 05:25:20;;;;;;;22.83;10.80;;;;;;;9.18;78.09;93806.44;5034379;28;20183;-83
2022/04/10 05:27:45;;;;;;;16.87;10.17;;;;;;;9.19;77.71;93805.41;5052349;28;20587;-83
2022/04/10 05:30:11;;;;;;;15.20;10.63;;;;;;;9.12;77.84;93781.09;5052335;28;20167;-83
2022/04/10 05:32:42;;;;;;;15.97;9.67;;;;;;;9.20;77.17;93788.63;5052277;28;20186;-82
2022/04/10 05:35:08;;;;;;;16.37;11.13;;;;;;;9.27;77.30;93783.28;5034227;28;20252;-84
2022/04/10 05:37:33;;;;;;;16.30;10.57;;;;;;;9.54;77.29;93828.25;5034491;28;20203;-83
2022/04/10 05:39:59;;;;;;;16.83;10.57;;;;;;;9.26;76.09;93773.78;5052515;28;20242;-84
2022/04/10 05:42:24;;;;;;;15.43;10.07;;;;;;;9.83;75.96;93872.00;5052368;28;20163;-84
2022/04/10 05:44:49;;;;;;;14.07;9.40;;;;;;;9.39;75.97;93812.97;5052656;28;20178;-84
2022/04/10 05:47:15;;;;;;;15.07;10.00;;;;;;;9.18;76.05;93814.31;5035271;28;20563;-84
2022/04/10 05:49:40;;;;;;;16.97;10.00;;;;;;;9.25;76.86;93848.38;5053340;28;20156;-84
2022/04/10 05:52:07;;;;;;;16.53;10.83;;;;;;;9.29;77.59;93854.75;5053229;28;20179;-84
2022/04/10 05:54:33;;;;;;;15.37;10.20;;;;;;;9.26;77.70;93842.84;5053630;28;20155;-85
2022/04/10 05:56:58;;;;;;;13.37;8.60;;;;;;;9.12;76.81;93796.06;5054290;28;20189;-84
2022/04/10 05:59:24;;;;;;;14.63;8.90;;;;;;;9.04;75.75;93794.56;5054575;28;20167;-84
2022/04/10 06:01:49;;;;;;;12.17;8.13;;;;;;;9.29;75.19;93831.13;5034960;28;20163;-84
2022/04/10 06:04:14;;;;;;;14.57;8.90;;;;;;;9.18;76.24;93861.56;5051770;28;20168;-84
2022/04/10 06:06:40;;;;;;;11.77;8.73;;;;;;;8.89;75.93;93809.97;5050874;28;20579;-84
2022/04/10 06:09:05;;;;;;;11.27;7.47;;;;;;;9.56;75.38;93912.91;5033034;28;20228;-84
2022/04/10 06:11:31;;;;;;;12.80;7.27;;;;;;;9.05;74.30;93840.81;5050569;28;20245;-84
2022/04/10 06:13:56;;;;;;;9.37;6.30;;;;;;;9.03;73.91;93848.09;5050747;28;20183;-88
2022/04/10 06:16:21;;;;;;;10.83;6.93;;;;;;;9.54;73.85;93923.63;5032923;28;20771;-82
2022/04/10 06:18:47;;;;;;;10.13;7.00;;;;;;;9.24;74.01;93889.56;5050700;28;20233;-82
2022/04/10 06:21:12;;;;;;;10.13;6.40;;;;;;;9.20;74.17;93883.16;5049104;28;20182;-79
2022/04/10 06:23:38;;;;;;;10.30;6.67;;;;;;;9.26;74.21;93929.50;5050641;28;20257;-79
2022/04/10 06:26:03;;;;;;;11.10;6.47;;;;;;;9.04;74.91;93907.44;5050618;28;20221;-81
2022/04/10 06:28:30;;;;;;;11.23;6.77;;;;;;;9.02;75.08;93917.34;5050223;28;20250;-82
2022/04/10 06:30:55;;;;;;;10.80;5.93;;;;;;;8.82;75.08;93920.25;5050623;28;20186;-81
2022/04/10 06:33:21;;;;;;;9.60;5.80;;;;;;;8.61;74.85;93858.59;5046839;28;20179;-83
2022/04/10 06:35:47;;;;;;;6.77;4.97;;;;;;;8.37;74.63;93822.84;5049614;28;20226;-82
2022/04/10 06:38:12;;;;;;;7.90;4.90;;;;;;;8.62;75.34;93886.44;5032275;28;20543;-81
2022/04/10 06:40:37;;;;;;;8.20;5.23;;;;;;;8.71;76.66;93910.53;5051405;28;20316;-81
2022/04/10 06:43:06;;;;;;;8.13;5.30;;;;;;;8.88;76.31;93919.38;5051296;28;20178;-83
2022/04/10 06:45:32;;;;;;;6.20;4.40;;;;;;;8.61;75.93;93845.50;5054156;28;20194;-81
2022/04/10 06:47:57;;;;;;;7.30;4.63;;;;;;;9.08;74.28;93890.22;5054900;28;20205;-82
2022/04/10 06:50:22;;;;;;;7.60;5.30;;;;;;;9.25;73.89;93896.44;5055100;28;20168;-82
2022/04/10 06:53:05;;;;;;;8.67;5.30;;;;;;;9.29;74.31;93905.44;5054352;28;20167;-82
2022/04/10 06:55:31;;;;;;;5.07;3.97;;;;;;;8.87;74.48;93857.41;5053790;28;20286;-82
2022/04/10 06:57:57;;;;;;;5.60;4.00;;;;;;;9.29;74.34;93918.56;5036633;28;20587;-82
2022/04/10 07:00:22;;;;;;;5.70;4.03;;;;;;;8.91;73.79;93850.69;5055196;28;20209;-82
2022/04/10 07:02:48;;;;;;;6.37;4.50;;;;;;;9.38;73.53;93900.66;5036920;28;20541;-82
2022/04/10 07:05:14;;;;;;;4.50;3.53;;;;;;;9.48;72.68;93907.97;5036897;28;20555;-82
2022/04/10 07:07:39;;;;;;;5.07;3.87;;;;;;;8.89;72.04;93828.34;5053694;28;20309;-82
2022/04/10 07:10:06;;;;;;;6.40;3.77;;;;;;;9.02;72.63;93860.41;5053943;28;20202;-82
2022/04/10 07:12:31;;;;;;;5.77;4.17;;;;;;;9.02;72.62;93849.91;5053475;28;20316;-81
2022/04/10 07:15:01;;;;;;;4.43;3.77;;;;;;;8.97;72.55;93870.00;5054689;28;20167;-81
2022/04/10 07:17:27;;;;;;;4.57;3.20;;;;;;;8.73;72.64;93823.75;5054374;28;20163;-81
2022/04/10 07:19:52;;;;;;;5.10;3.87;;;;;;;9.01;72.22;93848.31;5054402;28;20697;-82
2022/04/10 07:25:07;;;;;;;3.77;2.87;;;;;;;9.48;71.08;93919.28;5025673;28;20273;-81
2022/04/10 07:27:32;;;;;;;5.13;3.40;;;;;;;9.43;71.21;93906.81;5054293;28;20266;-82
2022/04/10 07:29:58;;;;;;;5.03;3.27;;;;;;;9.22;70.73;93882.94;5054431;28;20611;-82
2022/04/10 07:32:23;;;;;;;5.37;3.73;;;;;;;9.09;70.45;93855.84;5053121;28;20179;-82
2022/04/10 07:34:48;;;;;;;5.20;2.77;;;;;;;9.12;69.87;93853.81;5053873;28;20175;-82
2022/04/10 07:37:14;;;;;;;4.77;2.40;;;;;;;9.60;69.73;93932.44;5053673;28;20207;-82
2022/04/10 07:39:39;;;;;;;3.17;2.80;;;;;;;9.58;69.54;93924.78;5052884;28;20175;-82
2022/04/10 07:42:05;;;;;;;4.30;2.83;;;;;;;9.48;68.96;93900.91;5053345;28;20992;-82
2022/04/10 07:44:31;;;;;;;3.90;3.10;;;;;;;9.73;67.59;93933.00;5053239;28;20175;-82
2022/04/10 07:49:40;;;;;;;2.40;2.17;;;;;;;9.71;67.82;93929.81;5054462;28;20247;-83
2022/04/10 07:52:05;;;;;;;3.10;2.40;;;;;;;9.66;67.25;93907.88;5035327;28;20262;-84
2022/04/10 07:54:31;;;;;;;4.37;2.47;;;;;;;9.51;66.83;93868.13;5053822;28;20186;-84
2022/04/10 07:56:56;;;;;;;3.10;2.40;;;;;;;10.02;66.66;93948.91;5053675;28;20187;-83
2022/04/10 07:59:23;;;;;;;2.17;1.97;;;;;;;9.71;65.39;93900.09;5053399;28;20175;-80
2022/04/10 08:01:49;;;;;;;2.20;2.00;;;;;;;9.53;66.12;93897.56;5052226;28;20189;-78
2022/04/10 08:04:15;;;;;;;2.63;1.90;;;;;;;9.55;66.20;93903.41;5052189;28;20269;-82
2022/04/10 08:06:40;;;;;;;4.23;2.47;;;;;;;9.56;67.38;93897.94;5051218;28;20592;-82
2022/04/10 08:09:06;;;;;;;5.60;2.70;;;;;;;9.52;66.01;93895.97;5051451;28;20201;-83
2022/04/10 08:11:31;;;;;;;4.47;2.50;;;;;;;9.65;65.78;93916.78;5050556;28;20223;-84
2022/04/10 08:13:57;;;;;;;4.13;2.30;;;;;;;9.86;65.93;93955.63;5053300;28;20202;-80
2022/04/10 08:16:22;;;;;;;2.63;2.00;;;;;;;9.52;65.88;93916.97;5052546;28;20199;-79
2022/04/10 08:18:47;;;;;;;2.00;1.80;;;;;;;9.83;65.63;93971.88;5052618;28;20244;-80
2022/04/10 08:21:13;;;;;;;2.63;1.80;;;;;;;9.39;65.04;93916.19;5034377;28;20633;-81
2022/04/10 08:23:38;;;;;;;3.07;2.17;;;;;;;9.24;66.51;93894.81;5034743;28;20205;-82
2022/04/10 08:26:04;;;;;;;7.23;1.80;;;;;;;9.39;65.82;93949.53;5052794;28;20182;-82
2022/04/10 08:28:29;;;;;;;1.83;1.57;;;;;;;9.48;65.78;93984.97;5053204;28;20197;-80
2022/04/10 08:30:54;;;;;;;2.50;1.90;;;;;;;9.19;66.79;93962.94;5052124;28;20638;-79
2022/04/10 08:33:20;;;;;;;2.93;2.10;;;;;;;9.26;67.48;93966.28;5051565;28;20672;-81
2022/04/10 08:35:46;;;;;;;1.70;1.53;;;;;;;9.46;65.65;93982.56;5051559;28;20265;-80
2022/04/10 08:38:11;;;;;;;3.03;2.03;;;;;;;9.38;64.70;93996.00;5051960;28;20171;-80
2022/04/10 08:40:37;;;;;;;2.57;1.67;;;;;;;9.10;65.61;93961.66;5052029;28;20175;-81
2022/04/10 08:43:02;;;;;;;4.17;2.53;;;;;;;9.21;66.19;94000.28;5051936;28;20195;-81
2022/04/10 08:45:29;;;;;;;1.90;1.70;;;;;;;9.00;66.00;93995.50;5033642;28;20182;-80
2022/04/10 08:47:55;;;;;;;3.23;1.53;;;;;;;9.01;66.24;94020.75;5051877;28;20175;-80
2022/04/10 08:50:29;;;;;;;2.27;1.70;;;;;;;8.80;67.57;94027.28;5033110;28;20198;-80
2022/04/10 08:52:58;;;;;;;3.97;2.30;;;;;;;8.63;68.90;94032.31;5031591;28;20232;-80
2022/04/10 08:55:26;;;;;;;6.50;3.27;;;;;;;8.57;69.25;94037.63;5048550;28;20697;-80
2022/04/10 08:57:52;;;;;;;2.13;1.70;;;;;;;8.45;68.97;94019.19;5049609;28;20171;-80
2022/04/10 09:00:19;;;;;;;2.10;1.80;;;;;;;8.52;69.26;94042.72;5049061;28;20175;-80
2022/04/10 09:02:54;;;;;;;2.40;1.80;;;;;;;8.37;69.21;94042.28;5030328;28;20182;-80
2022/04/10 09:05:24;;;;;;;2.67;1.50;;;;;;;8.29;69.99;94049.38;5047525;28;20174;-79
2022/04/10 09:08:11;;;;;;;3.13;2.10;;;;;;;8.13;70.71;94039.44;5047419;28;20701;-80
2022/04/10 09:10:58;;;;;;;3.00;1.70;;;;;;;7.92;70.96;94052.94;5028516;28;20232;-80
2022/04/10 09:13:47;;;;;;;4.33;2.60;;;;;;;7.61;71.92;94006.63;5047467;28;20729;-80
2022/04/10 09:16:17;;;;;;;2.47;1.90;;;;;;;7.67;71.74;94024.13;5031453;28;20207;-79
2022/04/10 09:19:10;;;;;;;4.03;2.20;;;;;;;7.70;72.06;94049.88;5048608;28;20658;-80
2022/04/10 09:21:38;;;;;;;4.47;2.67;;;;;;;7.46;72.87;94019.22;5038873;28;20187;-79
2022/04/10 09:24:09;;;;;;;4.00;2.47;;;;;;;7.47;72.87;94007.75;5049206;28;20179;-80
2022/04/10 09:26:45;;;;;;;3.93;2.10;;;;;;;7.66;72.49;94032.97;5049260;28;20565;-79
2022/04/10 09:29:11;;;;;;;3.17;2.63;;;;;;;7.51;73.00;93988.78;5049878;28;20186;-80
2022/04/10 09:31:37;;;;;;;1.80;1.70;;;;;;;7.72;72.18;93997.28;5049286;28;20175;-80
2022/04/10 09:34:05;;;;;;;4.30;3.00;;;;;;;7.84;71.64;94030.44;5031228;28;20185;-81
2022/04/10 09:36:33;;;;;;;3.37;2.90;;;;;;;7.95;72.34;94053.31;5048472;28;20257;-81
2022/04/10 09:38:59;;;;;;;2.80;2.47;;;;;;;7.84;71.67;94019.16;5049532;28;20225;-80
2022/04/10 09:41:24;;;;;;;8.50;4.37;;;;;;;7.97;72.56;94019.81;5049501;28;20277;-81
2022/04/10 09:43:50;;;;;;;10.07;5.23;;;;;;;8.32;73.43;94040.28;5048681;28;20753;-81
2022/04/10 09:46:15;;;;;;;4.37;1.90;;;;;;;8.33;71.09;94036.66;5049235;28;20677;-81
2022/04/10 09:48:41;;;;;;;4.30;2.20;;;;;;;8.47;71.65;94060.94;5031032;28;20718;-81
2022/04/10 09:51:09;;;;;;;11.53;6.37;;;;;;;8.28;71.73;94032.03;5049057;28;20171;-82
2022/04/10 09:53:37;;;;;;;4.17;2.90;;;;;;;8.43;71.10;94059.75;5049233;28;20647;-82
2022/04/10 09:56:05;;;;;;;3.63;2.10;;;;;;;8.46;70.56;94068.00;5049057;28;20199;-82
2022/04/10 09:58:32;;;;;;;5.53;2.53;;;;;;;8.45;70.63;94076.88;5048784;28;20171;-81
2022/04/10 10:00:59;;;;;;;3.23;2.40;;;;;;;8.25;70.83;94073.63;5031235;28;20672;-81
2022/04/10 10:03:28;;;;;;;3.07;1.80;;;;;;;8.22;71.48;94066.97;5031604;28;20264;-80
2022/04/10 10:05:57;;;;;;;5.03;2.83;;;;;;;8.22;72.71;94064.34;5048672;28;20179;-79
2022/04/10 10:08:23;;;;;;;6.57;2.57;;;;;;;8.16;71.96;94070.47;5049241;28;20183;-80
2022/04/10 10:10:49;;;;;;;4.13;2.77;;;;;;;8.11;72.09;94069.50;5050330;28;20167;-81
2022/04/10 10:13:15;;;;;;;9.73;4.33;;;;;;;8.09;72.71;94071.53;5049147;28;20226;-81
2022/04/10 10:15:44;;;;;;;4.73;2.57;;;;;;;8.04;72.17;94063.53;5048851;28;20672;-81
2022/04/10 10:18:12;;;;;;;5.53;3.13;;;;;;;7.98;72.40;94065.16;5049453;28;20592;-80
2022/04/10 10:20:43;;;;;;;6.17;3.27;;;;;;;7.79;73.46;94058.25;5053380;28;21004;-79
2022/04/10 10:23:12;;;;;;;4.77;2.90;;;;;;;7.75;74.14;94050.03;5054740;28;20183;-79
2022/04/10 10:26:10;;;;;;;7.47;3.13;;;;;;;7.81;74.48;94046.56;5055309;28;20174;-80
2022/04/10 10:28:55;;;;;;;6.50;3.50;;;;;;;7.79;74.55;94021.59;5024378;28;20277;-80
2022/04/10 10:31:39;;;;;;;4.90;3.30;;;;;;;7.84;73.80;94040.91;5037464;28;20646;-80
2022/04/10 10:34:07;;;;;;;8.03;4.57;;;;;;;7.54;74.21;93998.81;5053875;28;20190;-78
2022/04/10 10:36:32;;;;;;;5.23;3.33;;;;;;;7.90;73.65;94044.47;5054719;28;20191;-80
2022/04/10 10:38:59;;;;;;;5.60;3.60;;;;;;;7.68;73.31;94038.00;5054379;28;20649;-79
2022/04/10 10:41:24;;;;;;;4.47;2.47;;;;;;;7.52;74.36;94041.97;5054012;28;20225;-79
2022/04/10 10:43:50;;;;;;;3.57;2.70;;;;;;;7.31;74.42;94030.00;5052677;28;20202;-79
2022/04/10 10:46:28;;;;;;;4.30;3.07;;;;;;;7.36;75.77;94040.63;5053819;28;20644;-77
2022/04/10 10:49:17;;;;;;;9.03;3.83;;;;;;;7.44;76.28;94031.72;5054003;28;20209;-77
2022/04/10 10:51:50;;;;;;;3.30;2.53;;;;;;;7.34;74.83;94008.66;5053355;28;20199;-80
2022/04/10 10:54:21;;;;;;;4.57;2.63;;;;;;;7.45;73.54;94020.22;5053955;28;20669;-79
2022/04/10 10:56:50;;;;;;;5.07;3.57;;;;;;;7.45;73.57;94026.28;5053742;28;20233;-80
2022/04/10 10:59:22;;;;;;;4.60;3.27;;;;;;;7.49;73.83;94024.84;5053576;28;20175;-80
2022/04/10 11:02:08;;;;;;;6.07;3.10;;;;;;;7.49;74.00;94027.47;5053735;28;20237;-81
2022/04/10 11:04:50;;;;;;;4.33;3.40;;;;;;;7.25;74.29;93998.63;5053906;28;20175;-81
2022/04/10 11:07:19;;;;;;;8.47;4.13;;;;;;;7.48;73.82;94022.44;5052678;28;20175;-82
2022/04/10 11:09:51;;;;;;;7.27;4.30;;;;;;;7.46;73.34;94009.56;5052840;28;20604;-81
2022/04/10 11:12:21;;;;;;;4.90;3.10;;;;;;;7.00;73.56;93947.06;5053329;28;20238;-83
2022/04/10 11:14:50;;;;;;;5.93;3.47;;;;;;;7.42;74.63;94007.59;5052010;28;20163;-81
2022/04/10 11:17:21;;;;;;;7.23;3.40;;;;;;;7.31;73.68;94001.22;5055526;28;20659;-80
2022/04/10 11:19:56;;;;;;;8.43;3.63;;;;;;;7.36;73.27;94016.25;5050085;28;20649;-79
2022/04/10 11:22:23;;;;;;;7.73;3.87;;;;;;;7.29;73.50;94024.16;5050565;28;20202;-80
2022/04/10 11:24:53;;;;;;;11.20;5.30;;;;;;;6.95;74.61;93962.59;5052874;28;20180;-79
2022/04/10 11:27:43;;;;;;;14.20;7.20;;;;;;;7.28;74.08;94029.59;5051264;28;20187;-81
2022/04/10 11:30:13;;;;;;;14.10;7.23;;;;;;;7.10;74.95;94007.56;5051030;28;20179;-78
2022/04/10 11:32:43;;;;;;;7.43;5.10;;;;;;;7.13;75.23;94015.00;5052477;28;20527;-79
2022/04/10 11:35:17;;;;;;;12.63;5.73;;;;;;;6.89;75.46;93989.59;5052721;28;20221;-81
2022/04/10 11:37:44;;;;;;;10.37;5.63;;;;;;;7.20;76.14;94020.19;5050570;28;20186;-86